sensor_id;sensor_type;location;lat;lon;timestamp;temperature;humidity
15646;DHT22;7922;43.622;1.476;2022-09-24T00:01:16;16.80;99.90
15646;DHT22;7922;43.622;1.476;2022-09-24T00:03:44;16.80;99.90
15646;DHT22;7922;43.622;1.476;2022-09-24T00:06:10;16.80;99.90
15646;DHT22;7922;43.622;1.476;2022-09-24T00:08:40;16.80;99.90
15646;DHT22;7922;43.622;1.476;2022-09-24T00:11:06;16.80;99.90
15646;DHT22;7922;43.622;1.476;2022-09-24T00:13:33;16.80;99.90
15646;DHT22;7922;43.622;1.476;2022-09-24T00:16:06;16.90;99.90
15646;DHT22;7922;43.622;1.476;2022-09-24T00:18:32;16.80;99.90
15646;DHT22;7922;43.622;1.476;2022-09-24T00:20:58;16.90;99.90
15646;DHT22;7922;43.622;1.476;2022-09-24T00:23:25;16.90;99.90
15646;DHT22;7922;43.622;1.476;2022-09-24T00:25:50;17.00;99.90
15646;DHT22;7922;43.622;1.476;2022-09-24T00:28:35;17.00;99.90
15646;DHT22;7922;43.622;1.476;2022-09-24T00:31:05;17.00;99.90
15646;DHT22;7922;43.622;1.476;2022-09-24T00:33:33;17.00;99.90
15646;DHT22;7922;43.622;1.476;2022-09-24T00:36:00;17.10;99.90
15646;DHT22;7922;43.622;1.476;2022-09-24T00:38:28;17.00;99.90
15646;DHT22;7922;43.622;1.476;2022-09-24T00:40:54;17.00;99.90
15646;DHT22;7922;43.622;1.476;2022-09-24T00:43:25;17.00;99.90
15646;DHT22;7922;43.622;1.476;2022-09-24T00:45:58;17.00;99.90
15646;DHT22;7922;43.622;1.476;2022-09-24T00:48:27;17.00;99.90
15646;DHT22;7922;43.622;1.476;2022-09-24T00:50:54;17.10;99.90
15646;DHT22;7922;43.622;1.476;2022-09-24T00:53:21;17.10;99.90
15646;DHT22;7922;43.622;1.476;2022-09-24T00:55:51;17.10;99.90
15646;DHT22;7922;43.622;1.476;2022-09-24T00:58:19;17.10;99.90
15646;DHT22;7922;43.622;1.476;2022-09-24T01:00:50;17.10;99.90
15646;DHT22;7922;43.622;1.476;2022-09-24T01:03:20;17.10;99.90
15646;DHT22;7922;43.622;1.476;2022-09-24T01:05:47;17.10;99.90
15646;DHT22;7922;43.622;1.476;2022-09-24T01:08:14;17.10;99.90
15646;DHT22;7922;43.622;1.476;2022-09-24T01:13:34;17.00;99.90
15646;DHT22;7922;43.622;1.476;2022-09-24T01:16:17;17.10;99.90
15646;DHT22;7922;43.622;1.476;2022-09-24T01:19:16;17.10;99.90
15646;DHT22;7922;43.622;1.476;2022-09-24T01:21:54;17.10;99.90
15646;DHT22;7922;43.622;1.476;2022-09-24T01:24:31;17.10;99.90
15646;DHT22;7922;43.622;1.476;2022-09-24T01:27:30;17.10;99.90
15646;DHT22;7922;43.622;1.476;2022-09-24T01:30:10;17.10;99.90
15646;DHT22;7922;43.622;1.476;2022-09-24T01:32:54;17.00;99.90
15646;DHT22;7922;43.622;1.476;2022-09-24T01:35:30;17.00;99.90
15646;DHT22;7922;43.622;1.476;2022-09-24T01:38:02;17.00;99.90
15646;DHT22;7922;43.622;1.476;2022-09-24T01:40:29;17.00;99.90
15646;DHT22;7922;43.622;1.476;2022-09-24T01:42:57;16.90;99.90
15646;DHT22;7922;43.622;1.476;2022-09-24T01:45:25;16.90;99.90
15646;DHT22;7922;43.622;1.476;2022-09-24T01:47:54;16.90;99.90
15646;DHT22;7922;43.622;1.476;2022-09-24T01:50:23;16.90;99.90
15646;DHT22;7922;43.622;1.476;2022-09-24T01:53:05;16.90;99.90
15646;DHT22;7922;43.622;1.476;2022-09-24T01:55:38;16.90;99.90
15646;DHT22;7922;43.622;1.476;2022-09-24T01:58:10;16.90;99.90
15646;DHT22;7922;43.622;1.476;2022-09-24T02:00:42;16.90;99.90
15646;DHT22;7922;43.622;1.476;2022-09-24T02:03:18;17.00;99.90
15646;DHT22;7922;43.622;1.476;2022-09-24T02:06:07;17.00;99.90
15646;DHT22;7922;43.622;1.476;2022-09-24T02:08:40;16.90;99.90
15646;DHT22;7922;43.622;1.476;2022-09-24T02:11:17;16.90;99.90
15646;DHT22;7922;43.622;1.476;2022-09-24T02:13:49;16.80;99.90
15646;DHT22;7922;43.622;1.476;2022-09-24T02:16:21;16.90;99.90
15646;DHT22;7922;43.622;1.476;2022-09-24T02:18:51;16.90;99.90
15646;DHT22;7922;43.622;1.476;2022-09-24T02:21:21;16.90;99.90
15646;DHT22;7922;43.622;1.476;2022-09-24T02:23:56;16.80;99.90
15646;DHT22;7922;43.622;1.476;2022-09-24T02:26:23;16.80;99.90
15646;DHT22;7922;43.622;1.476;2022-09-24T02:28:49;16.80;99.90
15646;DHT22;7922;43.622;1.476;2022-09-24T02:31:22;16.70;99.90
15646;DHT22;7922;43.622;1.476;2022-09-24T02:33:52;16.70;99.90
15646;DHT22;7922;43.622;1.476;2022-09-24T02:36:38;16.70;99.90
15646;DHT22;7922;43.622;1.476;2022-09-24T02:39:04;16.70;99.90
15646;DHT22;7922;43.622;1.476;2022-09-24T02:41:30;16.80;99.90
15646;DHT22;7922;43.622;1.476;2022-09-24T02:43:57;16.80;99.90
15646;DHT22;7922;43.622;1.476;2022-09-24T02:46:23;16.80;99.90
15646;DHT22;7922;43.622;1.476;2022-09-24T02:48:49;16.80;99.90
15646;DHT22;7922;43.622;1.476;2022-09-24T02:51:14;16.90;99.90
15646;DHT22;7922;43.622;1.476;2022-09-24T02:53:40;16.90;99.90
15646;DHT22;7922;43.622;1.476;2022-09-24T02:56:06;16.90;99.90
15646;DHT22;7922;43.622;1.476;2022-09-24T02:58:32;16.80;99.90
15646;DHT22;7922;43.622;1.476;2022-09-24T03:00:58;16.80;99.90
15646;DHT22;7922;43.622;1.476;2022-09-24T03:03:24;16.80;99.90
15646;DHT22;7922;43.622;1.476;2022-09-24T03:05:51;16.80;99.90
15646;DHT22;7922;43.622;1.476;2022-09-24T03:08:20;16.80;99.90
15646;DHT22;7922;43.622;1.476;2022-09-24T03:10:46;16.70;99.90
15646;DHT22;7922;43.622;1.476;2022-09-24T03:13:12;16.70;99.90
15646;DHT22;7922;43.622;1.476;2022-09-24T03:15:38;16.70;99.90
15646;DHT22;7922;43.622;1.476;2022-09-24T03:18:04;16.70;99.90
15646;DHT22;7922;43.622;1.476;2022-09-24T03:20:30;16.70;99.90
15646;DHT22;7922;43.622;1.476;2022-09-24T03:22:55;16.70;99.90
15646;DHT22;7922;43.622;1.476;2022-09-24T03:25:21;16.70;99.90
15646;DHT22;7922;43.622;1.476;2022-09-24T03:27:47;16.70;99.90
15646;DHT22;7922;43.622;1.476;2022-09-24T03:30:13;16.70;99.90
15646;DHT22;7922;43.622;1.476;2022-09-24T03:32:57;16.70;99.90
15646;DHT22;7922;43.622;1.476;2022-09-24T03:35:24;16.80;99.90
15646;DHT22;7922;43.622;1.476;2022-09-24T03:37:50;16.80;99.90
15646;DHT22;7922;43.622;1.476;2022-09-24T03:40:16;16.70;99.90
15646;DHT22;7922;43.622;1.476;2022-09-24T03:42:42;16.70;99.90
15646;DHT22;7922;43.622;1.476;2022-09-24T03:45:08;16.70;99.90
15646;DHT22;7922;43.622;1.476;2022-09-24T03:47:33;16.60;99.90
15646;DHT22;7922;43.622;1.476;2022-09-24T03:50:00;16.70;99.90
15646;DHT22;7922;43.622;1.476;2022-09-24T03:52:27;16.70;99.90
15646;DHT22;7922;43.622;1.476;2022-09-24T03:54:52;16.70;99.90
15646;DHT22;7922;43.622;1.476;2022-09-24T03:57:18;16.70;99.90
15646;DHT22;7922;43.622;1.476;2022-09-24T03:59:44;16.80;99.90
15646;DHT22;7922;43.622;1.476;2022-09-24T04:02:10;16.70;99.90
15646;DHT22;7922;43.622;1.476;2022-09-24T04:04:37;16.70;99.90
15646;DHT22;7922;43.622;1.476;2022-09-24T04:07:03;16.80;99.90
15646;DHT22;7922;43.622;1.476;2022-09-24T04:09:29;16.70;99.90
15646;DHT22;7922;43.622;1.476;2022-09-24T04:11:55;16.70;99.90
15646;DHT22;7922;43.622;1.476;2022-09-24T04:14:22;16.70;99.90
15646;DHT22;7922;43.622;1.476;2022-09-24T04:16:47;16.70;99.90
15646;DHT22;7922;43.622;1.476;2022-09-24T04:19:14;16.70;99.90
15646;DHT22;7922;43.622;1.476;2022-09-24T04:21:46;16.70;99.90
15646;DHT22;7922;43.622;1.476;2022-09-24T04:24:11;16.70;99.90
15646;DHT22;7922;43.622;1.476;2022-09-24T04:26:37;16.70;99.90
15646;DHT22;7922;43.622;1.476;2022-09-24T04:29:04;16.70;99.90
15646;DHT22;7922;43.622;1.476;2022-09-24T04:31:31;16.70;99.90
15646;DHT22;7922;43.622;1.476;2022-09-24T04:33:59;16.70;99.90
15646;DHT22;7922;43.622;1.476;2022-09-24T04:36:25;16.70;99.90
15646;DHT22;7922;43.622;1.476;2022-09-24T04:38:50;16.80;99.90
15646;DHT22;7922;43.622;1.476;2022-09-24T04:41:16;16.70;99.90
15646;DHT22;7922;43.622;1.476;2022-09-24T04:43:43;16.70;99.90
15646;DHT22;7922;43.622;1.476;2022-09-24T04:46:11;16.70;99.90
15646;DHT22;7922;43.622;1.476;2022-09-24T04:48:37;16.70;99.90
15646;DHT22;7922;43.622;1.476;2022-09-24T04:51:04;16.80;99.90
15646;DHT22;7922;43.622;1.476;2022-09-24T04:53:31;16.70;99.90
15646;DHT22;7922;43.622;1.476;2022-09-24T04:55:58;16.70;99.90
15646;DHT22;7922;43.622;1.476;2022-09-24T04:58:24;16.80;99.90
15646;DHT22;7922;43.622;1.476;2022-09-24T05:00:51;16.80;99.90
15646;DHT22;7922;43.622;1.476;2022-09-24T05:03:17;16.80;99.90
15646;DHT22;7922;43.622;1.476;2022-09-24T05:12:10;16.80;99.90
15646;DHT22;7922;43.622;1.476;2022-09-24T05:14:36;16.80;99.90
15646;DHT22;7922;43.622;1.476;2022-09-24T05:17:02;16.80;99.90
15646;DHT22;7922;43.622;1.476;2022-09-24T05:19:27;16.80;99.90
15646;DHT22;7922;43.622;1.476;2022-09-24T05:21:53;16.70;99.90
15646;DHT22;7922;43.622;1.476;2022-09-24T05:24:19;16.60;99.90
15646;DHT22;7922;43.622;1.476;2022-09-24T05:26:44;16.70;99.90
15646;DHT22;7922;43.622;1.476;2022-09-24T05:29:28;16.70;99.90
15646;DHT22;7922;43.622;1.476;2022-09-24T05:31:54;16.70;99.90
15646;DHT22;7922;43.622;1.476;2022-09-24T05:34:20;16.70;99.90
15646;DHT22;7922;43.622;1.476;2022-09-24T05:36:46;16.70;99.90
15646;DHT22;7922;43.622;1.476;2022-09-24T05:39:12;16.80;99.90
15646;DHT22;7922;43.622;1.476;2022-09-24T05:41:38;16.70;99.90
15646;DHT22;7922;43.622;1.476;2022-09-24T05:44:05;16.70;99.90
15646;DHT22;7922;43.622;1.476;2022-09-24T05:46:31;16.70;99.90
15646;DHT22;7922;43.622;1.476;2022-09-24T05:48:57;16.70;99.90
15646;DHT22;7922;43.622;1.476;2022-09-24T05:51:23;16.80;99.90
15646;DHT22;7922;43.622;1.476;2022-09-24T05:53:49;16.80;99.90
15646;DHT22;7922;43.622;1.476;2022-09-24T05:56:15;16.80;99.90
15646;DHT22;7922;43.622;1.476;2022-09-24T05:58:41;16.80;99.90
15646;DHT22;7922;43.622;1.476;2022-09-24T06:01:07;16.80;99.90
15646;DHT22;7922;43.622;1.476;2022-09-24T06:03:32;16.80;99.90
15646;DHT22;7922;43.622;1.476;2022-09-24T06:05:58;16.80;99.90
15646;DHT22;7922;43.622;1.476;2022-09-24T06:08:28;16.80;99.90
15646;DHT22;7922;43.622;1.476;2022-09-24T06:10:59;16.90;99.90
15646;DHT22;7922;43.622;1.476;2022-09-24T06:13:24;16.90;99.90
15646;DHT22;7922;43.622;1.476;2022-09-24T06:15:50;16.90;99.90
15646;DHT22;7922;43.622;1.476;2022-09-24T06:18:16;16.80;99.90
15646;DHT22;7922;43.622;1.476;2022-09-24T06:20:42;16.90;99.90
15646;DHT22;7922;43.622;1.476;2022-09-24T06:23:07;16.80;99.90
15646;DHT22;7922;43.622;1.476;2022-09-24T06:25:33;16.90;99.90
15646;DHT22;7922;43.622;1.476;2022-09-24T06:28:01;16.90;99.90
15646;DHT22;7922;43.622;1.476;2022-09-24T06:30:29;16.90;99.90
15646;DHT22;7922;43.622;1.476;2022-09-24T06:33:00;16.80;99.90
15646;DHT22;7922;43.622;1.476;2022-09-24T06:35:27;16.80;99.90
15646;DHT22;7922;43.622;1.476;2022-09-24T06:37:52;16.80;99.90
15646;DHT22;7922;43.622;1.476;2022-09-24T06:40:18;16.90;99.90
15646;DHT22;7922;43.622;1.476;2022-09-24T06:42:44;16.90;99.90
15646;DHT22;7922;43.622;1.476;2022-09-24T06:45:15;17.00;99.90
15646;DHT22;7922;43.622;1.476;2022-09-24T06:47:40;16.90;99.90
15646;DHT22;7922;43.622;1.476;2022-09-24T06:50:07;16.90;99.90
15646;DHT22;7922;43.622;1.476;2022-09-24T06:52:33;16.90;99.90
15646;DHT22;7922;43.622;1.476;2022-09-24T06:54:58;16.90;99.90
15646;DHT22;7922;43.622;1.476;2022-09-24T06:57:24;16.90;99.90
15646;DHT22;7922;43.622;1.476;2022-09-24T06:59:50;16.80;99.90
15646;DHT22;7922;43.622;1.476;2022-09-24T07:02:16;16.90;99.90
15646;DHT22;7922;43.622;1.476;2022-09-24T07:04:42;17.00;99.90
15646;DHT22;7922;43.622;1.476;2022-09-24T07:07:07;17.00;99.90
15646;DHT22;7922;43.622;1.476;2022-09-24T07:09:52;17.10;99.90
15646;DHT22;7922;43.622;1.476;2022-09-24T07:12:17;17.20;99.90
15646;DHT22;7922;43.622;1.476;2022-09-24T07:14:43;17.10;99.90
15646;DHT22;7922;43.622;1.476;2022-09-24T07:17:09;17.10;99.90
15646;DHT22;7922;43.622;1.476;2022-09-24T07:19:34;17.10;99.90
15646;DHT22;7922;43.622;1.476;2022-09-24T07:22:00;17.00;99.90
15646;DHT22;7922;43.622;1.476;2022-09-24T07:24:25;17.00;99.90
15646;DHT22;7922;43.622;1.476;2022-09-24T07:26:51;16.90;99.90
15646;DHT22;7922;43.622;1.476;2022-09-24T07:29:17;16.90;99.90
15646;DHT22;7922;43.622;1.476;2022-09-24T07:31:43;17.00;99.90
15646;DHT22;7922;43.622;1.476;2022-09-24T07:34:08;17.00;99.90
15646;DHT22;7922;43.622;1.476;2022-09-24T07:36:34;17.10;99.90
15646;DHT22;7922;43.622;1.476;2022-09-24T07:39:00;17.20;99.90
15646;DHT22;7922;43.622;1.476;2022-09-24T07:41:26;17.30;99.90
15646;DHT22;7922;43.622;1.476;2022-09-24T07:43:51;17.40;99.90
15646;DHT22;7922;43.622;1.476;2022-09-24T07:46:18;17.60;99.90
15646;DHT22;7922;43.622;1.476;2022-09-24T07:48:45;17.80;99.90
15646;DHT22;7922;43.622;1.476;2022-09-24T07:51:12;17.90;99.90
15646;DHT22;7922;43.622;1.476;2022-09-24T07:53:38;17.80;99.90
15646;DHT22;7922;43.622;1.476;2022-09-24T07:56:05;17.70;99.90
15646;DHT22;7922;43.622;1.476;2022-09-24T07:58:31;17.70;99.90
15646;DHT22;7922;43.622;1.476;2022-09-24T08:00:57;17.60;99.90
15646;DHT22;7922;43.622;1.476;2022-09-24T08:03:23;17.80;99.90
15646;DHT22;7922;43.622;1.476;2022-09-24T08:05:50;17.90;99.90
15646;DHT22;7922;43.622;1.476;2022-09-24T08:08:16;17.90;99.90
15646;DHT22;7922;43.622;1.476;2022-09-24T08:10:44;17.70;99.90
15646;DHT22;7922;43.622;1.476;2022-09-24T08:13:10;17.60;99.90
15646;DHT22;7922;43.622;1.476;2022-09-24T08:15:36;17.50;99.90
15646;DHT22;7922;43.622;1.476;2022-09-24T08:18:02;17.60;99.90
15646;DHT22;7922;43.622;1.476;2022-09-24T08:20:29;17.70;99.90
15646;DHT22;7922;43.622;1.476;2022-09-24T08:23:03;17.70;99.90
15646;DHT22;7922;43.622;1.476;2022-09-24T08:25:29;17.60;99.90
15646;DHT22;7922;43.622;1.476;2022-09-24T08:28:00;17.80;99.90
15646;DHT22;7922;43.622;1.476;2022-09-24T08:30:25;18.00;99.90
15646;DHT22;7922;43.622;1.476;2022-09-24T08:32:51;18.00;99.90
15646;DHT22;7922;43.622;1.476;2022-09-24T08:35:16;18.10;99.90
15646;DHT22;7922;43.622;1.476;2022-09-24T08:37:43;18.00;99.90
15646;DHT22;7922;43.622;1.476;2022-09-24T08:40:21;18.00;99.90
15646;DHT22;7922;43.622;1.476;2022-09-24T08:45:22;18.10;99.90
15646;DHT22;7922;43.622;1.476;2022-09-24T08:48:15;18.30;99.90
15646;DHT22;7922;43.622;1.476;2022-09-24T08:50:57;18.20;99.90
15646;DHT22;7922;43.622;1.476;2022-09-24T08:56:25;18.10;99.90
15646;DHT22;7922;43.622;1.476;2022-09-24T08:59:20;18.40;99.90
15646;DHT22;7922;43.622;1.476;2022-09-24T09:07:37;18.30;99.90
15646;DHT22;7922;43.622;1.476;2022-09-24T09:10:14;18.40;99.90
15646;DHT22;7922;43.622;1.476;2022-09-24T09:12:53;18.80;99.90
15646;DHT22;7922;43.622;1.476;2022-09-24T09:15:29;19.30;99.90
15646;DHT22;7922;43.622;1.476;2022-09-24T09:18:01;19.20;99.90
15646;DHT22;7922;43.622;1.476;2022-09-24T09:20:37;19.10;99.90
15646;DHT22;7922;43.622;1.476;2022-09-24T09:25:57;18.70;99.90
15646;DHT22;7922;43.622;1.476;2022-09-24T09:28:25;18.40;99.90
15646;DHT22;7922;43.622;1.476;2022-09-24T09:31:06;18.30;99.90
15646;DHT22;7922;43.622;1.476;2022-09-24T09:36:48;18.90;99.90
15646;DHT22;7922;43.622;1.476;2022-09-24T09:42:36;18.70;99.90
15646;DHT22;7922;43.622;1.476;2022-09-24T09:45:39;18.70;99.90
15646;DHT22;7922;43.622;1.476;2022-09-24T09:48:08;19.00;99.90
15646;DHT22;7922;43.622;1.476;2022-09-24T09:51:00;18.90;99.90
15646;DHT22;7922;43.622;1.476;2022-09-24T09:53:29;18.80;99.90
15646;DHT22;7922;43.622;1.476;2022-09-24T09:56:06;18.70;99.90
15646;DHT22;7922;43.622;1.476;2022-09-24T09:58:37;18.70;99.90
15646;DHT22;7922;43.622;1.476;2022-09-24T10:01:10;18.60;99.90
15646;DHT22;7922;43.622;1.476;2022-09-24T10:06:11;18.80;99.90
15646;DHT22;7922;43.622;1.476;2022-09-24T10:08:37;19.20;99.90
15646;DHT22;7922;43.622;1.476;2022-09-24T10:11:05;19.40;99.90
15646;DHT22;7922;43.622;1.476;2022-09-24T10:13:32;19.70;99.90
15646;DHT22;7922;43.622;1.476;2022-09-24T10:16:04;19.90;99.90
15646;DHT22;7922;43.622;1.476;2022-09-24T10:21:12;20.20;99.90
15646;DHT22;7922;43.622;1.476;2022-09-24T10:23:41;20.30;99.90
15646;DHT22;7922;43.622;1.476;2022-09-24T10:26:08;20.60;99.90
15646;DHT22;7922;43.622;1.476;2022-09-24T10:28:48;20.60;99.90
15646;DHT22;7922;43.622;1.476;2022-09-24T10:31:36;20.60;99.90
15646;DHT22;7922;43.622;1.476;2022-09-24T10:34:04;20.80;99.90
15646;DHT22;7922;43.622;1.476;2022-09-24T10:36:50;21.00;99.90
15646;DHT22;7922;43.622;1.476;2022-09-24T10:39:16;21.20;99.90
15646;DHT22;7922;43.622;1.476;2022-09-24T10:41:49;21.10;99.90
15646;DHT22;7922;43.622;1.476;2022-09-24T10:44:16;21.20;99.90
15646;DHT22;7922;43.622;1.476;2022-09-24T10:55:18;21.50;99.90
15646;DHT22;7922;43.622;1.476;2022-09-24T11:11:45;20.80;99.90
15646;DHT22;7922;43.622;1.476;2022-09-24T11:20:32;21.20;99.90
15646;DHT22;7922;43.622;1.476;2022-09-24T11:40:07;20.80;99.90
15646;DHT22;7922;43.622;1.476;2022-09-24T11:51:08;20.60;99.90
15646;DHT22;7922;43.622;1.476;2022-09-24T11:53:44;20.70;99.90
15646;DHT22;7922;43.622;1.476;2022-09-24T11:56:35;20.70;99.90
15646;DHT22;7922;43.622;1.476;2022-09-24T12:01:37;20.80;99.90
15646;DHT22;7922;43.622;1.476;2022-09-24T12:04:18;21.10;99.90
15646;DHT22;7922;43.622;1.476;2022-09-24T12:06:51;21.20;99.90
15646;DHT22;7922;43.622;1.476;2022-09-24T12:12:05;21.10;99.90
15646;DHT22;7922;43.622;1.476;2022-09-24T12:14:44;21.00;99.90
15646;DHT22;7922;43.622;1.476;2022-09-24T12:17:43;20.90;99.90
15646;DHT22;7922;43.622;1.476;2022-09-24T12:22:50;20.70;99.90
15646;DHT22;7922;43.622;1.476;2022-09-24T12:25:20;20.70;99.90
15646;DHT22;7922;43.622;1.476;2022-09-24T12:27:46;20.70;99.90
15646;DHT22;7922;43.622;1.476;2022-09-24T12:30:35;20.60;99.90
15646;DHT22;7922;43.622;1.476;2022-09-24T12:33:54;20.50;99.90
15646;DHT22;7922;43.622;1.476;2022-09-24T12:39:02;20.50;99.90
15646;DHT22;7922;43.622;1.476;2022-09-24T12:41:36;20.30;99.90
15646;DHT22;7922;43.622;1.476;2022-09-24T12:46:54;20.30;99.90
15646;DHT22;7922;43.622;1.476;2022-09-24T12:49:30;20.30;99.90
15646;DHT22;7922;43.622;1.476;2022-09-24T12:51:59;20.50;99.90
15646;DHT22;7922;43.622;1.476;2022-09-24T12:57:10;20.90;99.90
15646;DHT22;7922;43.622;1.476;2022-09-24T12:59:50;21.00;99.90
15646;DHT22;7922;43.622;1.476;2022-09-24T13:07:38;20.50;99.90
15646;DHT22;7922;43.622;1.476;2022-09-24T13:12:43;20.60;99.90
15646;DHT22;7922;43.622;1.476;2022-09-24T13:15:34;20.30;99.90
15646;DHT22;7922;43.622;1.476;2022-09-24T13:18:01;20.20;99.90
15646;DHT22;7922;43.622;1.476;2022-09-24T13:20:29;20.20;99.90
15646;DHT22;7922;43.622;1.476;2022-09-24T13:23:10;20.20;99.90
15646;DHT22;7922;43.622;1.476;2022-09-24T13:25:36;20.30;99.90
15646;DHT22;7922;43.622;1.476;2022-09-24T13:28:19;20.30;99.90
15646;DHT22;7922;43.622;1.476;2022-09-24T13:30:50;20.40;99.90
15646;DHT22;7922;43.622;1.476;2022-09-24T13:38:26;20.40;99.90
15646;DHT22;7922;43.622;1.476;2022-09-24T13:41:01;20.40;99.90
15646;DHT22;7922;43.622;1.476;2022-09-24T13:43:38;20.00;99.90
15646;DHT22;7922;43.622;1.476;2022-09-24T13:46:11;20.10;99.90
15646;DHT22;7922;43.622;1.476;2022-09-24T13:48:43;20.20;99.90
15646;DHT22;7922;43.622;1.476;2022-09-24T13:51:12;20.10;99.90
15646;DHT22;7922;43.622;1.476;2022-09-24T13:53:43;20.40;99.90
15646;DHT22;7922;43.622;1.476;2022-09-24T13:56:17;20.20;99.90
15646;DHT22;7922;43.622;1.476;2022-09-24T13:58:43;20.40;99.90
15646;DHT22;7922;43.622;1.476;2022-09-24T14:01:22;20.50;99.90
15646;DHT22;7922;43.622;1.476;2022-09-24T14:04:00;20.30;99.90
15646;DHT22;7922;43.622;1.476;2022-09-24T14:06:35;20.40;99.90
15646;DHT22;7922;43.622;1.476;2022-09-24T14:09:02;20.40;99.90
15646;DHT22;7922;43.622;1.476;2022-09-24T14:11:50;20.60;99.90
15646;DHT22;7922;43.622;1.476;2022-09-24T14:14:21;20.30;99.90
15646;DHT22;7922;43.622;1.476;2022-09-24T14:16:49;20.00;99.90
15646;DHT22;7922;43.622;1.476;2022-09-24T14:19:15;20.00;99.90
15646;DHT22;7922;43.622;1.476;2022-09-24T14:21:55;20.10;99.90
15646;DHT22;7922;43.622;1.476;2022-09-24T14:24:34;20.20;99.90
15646;DHT22;7922;43.622;1.476;2022-09-24T14:27:06;19.90;99.90
15646;DHT22;7922;43.622;1.476;2022-09-24T14:29:59;19.90;99.90
15646;DHT22;7922;43.622;1.476;2022-09-24T14:32:33;19.90;99.90
15646;DHT22;7922;43.622;1.476;2022-09-24T14:35:05;19.80;99.90
15646;DHT22;7922;43.622;1.476;2022-09-24T14:37:34;19.50;99.90
15646;DHT22;7922;43.622;1.476;2022-09-24T14:40:11;19.20;99.90
15646;DHT22;7922;43.622;1.476;2022-09-24T14:42:40;19.20;99.90
15646;DHT22;7922;43.622;1.476;2022-09-24T14:45:09;19.40;99.90
15646;DHT22;7922;43.622;1.476;2022-09-24T14:47:41;19.40;99.90
15646;DHT22;7922;43.622;1.476;2022-09-24T14:50:42;19.30;99.90
15646;DHT22;7922;43.622;1.476;2022-09-24T14:53:30;19.40;99.90
15646;DHT22;7922;43.622;1.476;2022-09-24T14:55:57;19.10;99.90
15646;DHT22;7922;43.622;1.476;2022-09-24T15:03:38;19.00;99.90
15646;DHT22;7922;43.622;1.476;2022-09-24T15:06:24;18.90;99.90
15646;DHT22;7922;43.622;1.476;2022-09-24T15:09:26;18.90;99.90
15646;DHT22;7922;43.622;1.476;2022-09-24T15:11:53;19.00;99.90
15646;DHT22;7922;43.622;1.476;2022-09-24T15:14:29;18.90;99.90
15646;DHT22;7922;43.622;1.476;2022-09-24T15:17:07;19.00;99.90
15646;DHT22;7922;43.622;1.476;2022-09-24T15:19:35;18.80;99.90
15646;DHT22;7922;43.622;1.476;2022-09-24T15:22:01;18.80;99.90
15646;DHT22;7922;43.622;1.476;2022-09-24T15:24:27;18.80;99.90
15646;DHT22;7922;43.622;1.476;2022-09-24T15:27:13;18.50;99.90
15646;DHT22;7922;43.622;1.476;2022-09-24T15:29:39;18.40;99.90
15646;DHT22;7922;43.622;1.476;2022-09-24T15:32:14;18.30;99.90
15646;DHT22;7922;43.622;1.476;2022-09-24T15:34:41;18.20;99.90
15646;DHT22;7922;43.622;1.476;2022-09-24T15:37:12;18.20;99.90
15646;DHT22;7922;43.622;1.476;2022-09-24T15:39:38;18.10;99.90
15646;DHT22;7922;43.622;1.476;2022-09-24T15:42:04;18.00;99.90
15646;DHT22;7922;43.622;1.476;2022-09-24T15:44:30;17.90;99.90
15646;DHT22;7922;43.622;1.476;2022-09-24T15:46:56;17.90;99.90
15646;DHT22;7922;43.622;1.476;2022-09-24T15:49:22;17.90;99.90
15646;DHT22;7922;43.622;1.476;2022-09-24T15:51:50;18.00;99.90
15646;DHT22;7922;43.622;1.476;2022-09-24T15:54:16;18.00;99.90
15646;DHT22;7922;43.622;1.476;2022-09-24T15:56:42;18.10;99.90
15646;DHT22;7922;43.622;1.476;2022-09-24T15:59:14;18.10;99.90
15646;DHT22;7922;43.622;1.476;2022-09-24T16:01:40;18.00;99.90
15646;DHT22;7922;43.622;1.476;2022-09-24T16:04:10;18.00;99.90
15646;DHT22;7922;43.622;1.476;2022-09-24T16:06:36;18.00;99.90
15646;DHT22;7922;43.622;1.476;2022-09-24T16:09:03;18.10;99.90
15646;DHT22;7922;43.622;1.476;2022-09-24T16:11:30;18.30;99.90
15646;DHT22;7922;43.622;1.476;2022-09-24T16:13:55;18.20;99.90
15646;DHT22;7922;43.622;1.476;2022-09-24T16:16:21;18.20;99.90
15646;DHT22;7922;43.622;1.476;2022-09-24T16:18:47;18.20;99.90
15646;DHT22;7922;43.622;1.476;2022-09-24T16:21:13;18.30;99.90
15646;DHT22;7922;43.622;1.476;2022-09-24T16:23:38;18.30;99.90
15646;DHT22;7922;43.622;1.476;2022-09-24T16:26:04;18.30;99.90
15646;DHT22;7922;43.622;1.476;2022-09-24T16:28:30;18.30;99.90
15646;DHT22;7922;43.622;1.476;2022-09-24T16:30:56;18.30;99.90
15646;DHT22;7922;43.622;1.476;2022-09-24T16:33:23;18.30;99.90
15646;DHT22;7922;43.622;1.476;2022-09-24T16:35:49;18.30;99.90
15646;DHT22;7922;43.622;1.476;2022-09-24T16:38:16;18.30;99.90
15646;DHT22;7922;43.622;1.476;2022-09-24T16:40:43;18.30;99.90
15646;DHT22;7922;43.622;1.476;2022-09-24T16:43:08;18.20;99.90
15646;DHT22;7922;43.622;1.476;2022-09-24T16:45:34;18.30;99.90
15646;DHT22;7922;43.622;1.476;2022-09-24T16:48:00;18.40;99.90
15646;DHT22;7922;43.622;1.476;2022-09-24T16:50:26;18.30;99.90
15646;DHT22;7922;43.622;1.476;2022-09-24T16:52:51;18.40;99.90
15646;DHT22;7922;43.622;1.476;2022-09-24T16:55:20;18.30;99.90
15646;DHT22;7922;43.622;1.476;2022-09-24T16:57:49;18.30;99.90
15646;DHT22;7922;43.622;1.476;2022-09-24T17:00:15;18.30;99.90
15646;DHT22;7922;43.622;1.476;2022-09-24T17:02:41;18.30;99.90
15646;DHT22;7922;43.622;1.476;2022-09-24T17:05:07;18.40;99.90
15646;DHT22;7922;43.622;1.476;2022-09-24T17:07:32;18.40;99.90
15646;DHT22;7922;43.622;1.476;2022-09-24T17:09:58;18.30;99.90
15646;DHT22;7922;43.622;1.476;2022-09-24T17:12:44;18.20;99.90
15646;DHT22;7922;43.622;1.476;2022-09-24T17:15:11;18.10;99.90
15646;DHT22;7922;43.622;1.476;2022-09-24T17:17:40;18.00;99.90
15646;DHT22;7922;43.622;1.476;2022-09-24T17:20:06;18.00;99.90
15646;DHT22;7922;43.622;1.476;2022-09-24T17:22:32;17.90;99.90
15646;DHT22;7922;43.622;1.476;2022-09-24T17:24:57;17.90;99.90
15646;DHT22;7922;43.622;1.476;2022-09-24T17:27:23;17.90;99.90
15646;DHT22;7922;43.622;1.476;2022-09-24T17:29:49;17.90;99.90
15646;DHT22;7922;43.622;1.476;2022-09-24T17:32:14;17.90;99.90
15646;DHT22;7922;43.622;1.476;2022-09-24T17:34:40;17.90;99.90
15646;DHT22;7922;43.622;1.476;2022-09-24T17:37:06;17.90;99.90
15646;DHT22;7922;43.622;1.476;2022-09-24T17:39:31;17.80;99.90
15646;DHT22;7922;43.622;1.476;2022-09-24T17:41:57;17.80;99.90
15646;DHT22;7922;43.622;1.476;2022-09-24T17:44:23;17.80;99.90
15646;DHT22;7922;43.622;1.476;2022-09-24T17:46:48;17.80;99.90
15646;DHT22;7922;43.622;1.476;2022-09-24T17:49:14;17.70;99.90
15646;DHT22;7922;43.622;1.476;2022-09-24T17:51:40;17.70;99.90
15646;DHT22;7922;43.622;1.476;2022-09-24T17:54:10;17.70;99.90
15646;DHT22;7922;43.622;1.476;2022-09-24T17:56:36;17.70;99.90
15646;DHT22;7922;43.622;1.476;2022-09-24T17:59:07;17.70;99.90
15646;DHT22;7922;43.622;1.476;2022-09-24T18:01:34;17.60;99.90
15646;DHT22;7922;43.622;1.476;2022-09-24T18:04:02;17.60;99.90
15646;DHT22;7922;43.622;1.476;2022-09-24T18:06:28;17.60;99.90